Time;durP1;ratioP1;P1;durP2;ratioP2;P2;SDS_P1;SDS_P2;PMS_P1;PMS_P2;Temp;Humidity;BMP_temperature;BMP_pressure;BME280_temperature;BME280_humidity;BME280_pressure;Samples;Min_cycle;Max_cycle;Signal;HPM_P1;HPM_P2
2022/08/12 00:44:20;;;;;;;;;;;;;;;;;;5076436;28;19923;-85
2022/08/12 00:46:48;;;;;;;;;;;;;;;;;;5075900;28;19916;-87
2022/08/12 00:49:13;;;;;;;;;;;;;;;;;;5076605;28;20346;-86
2022/08/12 00:54:22;;;;;;;;;;;;;;;;;;5078729;28;19925;-87
2022/08/12 00:56:48;;;;;;;;;;;;;;;;;;5076941;28;19921;-87
2022/08/12 00:59:13;;;;;;;;;;;;;;;;;;5058174;28;19917;-86
2022/08/12 01:01:39;;;;;;;;;;;;;;;;;;5074783;28;19916;-87
2022/08/12 01:12:16;;;;;;;;;;;;;;;;;;5077178;28;20357;-86
2022/08/12 01:14:42;;;;;;;;;;;;;;;;;;5066104;28;19970;-86
2022/08/12 01:17:07;;;;;;;;;;;;;;;;;;5073883;28;19923;-87
2022/08/12 01:19:33;;;;;;;;;;;;;;;;;;5075811;28;19916;-86
2022/08/12 01:22:08;;;;;;;;;;;;;;;;;;5074730;28;19916;-86
2022/08/12 01:24:36;;;;;;;;;;;;;;;;;;5075926;28;19982;-87
2022/08/12 01:27:02;;;;;;;;;;;;;;;;;;5059664;28;20345;-86
2022/08/12 01:29:28;;;;;;;;;;;;;;;;;;5075206;28;19916;-87
2022/08/12 01:31:55;;;;;;;;;;;;;;;;;;5089317;28;19905;-84
2022/08/12 01:34:30;;;;;;;;;;;;;;;;;;5096411;28;20231;-85
2022/08/12 01:36:56;;;;;;;;;;;;;;;;;;5098410;28;19975;-85
2022/08/12 01:39:27;;;;;;;;;;;;;;;;;;5079345;28;20011;-87
2022/08/12 01:41:53;;;;;;;;;;;;;;;;;;5074272;28;19917;-87
2022/08/12 01:44:19;;;;;;;;;;;;;;;;;;5075373;28;19923;-87
2022/08/12 01:47:03;;;;;;;;;;;;;;;;;;5057214;28;20386;-89
2022/08/12 01:49:42;;;;;;;;;;;;;;;;;;5074046;28;20019;-87
2022/08/12 01:52:08;;;;;;;;;;;;;;;;;;5074748;28;19916;-87
2022/08/12 01:54:38;;;;;;;;;;;;;;;;;;5084585;28;19921;-86
2022/08/12 01:57:10;;;;;;;;;;;;;;;;;;5058663;28;19916;-86
2022/08/12 01:59:58;;;;;;;;;;;;;;;;;;5074388;28;19916;-86
2022/08/12 02:02:38;;;;;;;;;;;;;;;;;;5074091;28;20011;-87
2022/08/12 02:13:29;;;;;;;;;;;;;;;;;;5074642;28;19939;-87
2022/08/12 02:15:56;;;;;;;;;;;;;;;;;;5081995;28;19917;-86
2022/08/12 02:18:33;;;;;;;;;;;;;;;;;;5074563;28;19923;-87
2022/08/12 02:20:58;;;;;;;;;;;;;;;;;;5075108;28;20023;-87
2022/08/12 02:23:26;;;;;;;;;;;;;;;;;;5074937;28;19959;-86
2022/08/12 02:25:53;;;;;;;;;;;;;;;;;;5075311;28;19917;-86
2022/08/12 02:28:19;;;;;;;;;;;;;;;;;;5076543;28;19923;-86
2022/08/12 02:30:44;;;;;;;;;;;;;;;;;;5076358;28;19917;-86
2022/08/12 02:33:10;;;;;;;;;;;;;;;;;;5073716;28;20300;-86
2022/08/12 02:35:35;;;;;;;;;;;;;;;;;;5081480;28;19905;-86
2022/08/12 02:38:05;;;;;;;;;;;;;;;;;;5077719;28;20251;-87
2022/08/12 02:40:31;;;;;;;;;;;;;;;;;;5073314;28;19959;-86
2022/08/12 02:42:57;;;;;;;;;;;;;;;;;;5073423;28;19923;-86
2022/08/12 02:45:44;;;;;;;;;;;;;;;;;;5056253;28;20266;-87
2022/08/12 02:48:09;;;;;;;;;;;;;;;;;;5074461;28;19916;-88
2022/08/12 02:50:36;;;;;;;;;;;;;;;;;;5073205;28;20407;-88
2022/08/12 02:53:02;;;;;;;;;;;;;;;;;;5056869;28;19916;-87
2022/08/12 02:55:29;;;;;;;;;;;;;;;;;;5074481;28;19921;-87
2022/08/12 02:57:54;;;;;;;;;;;;;;;;;;5082262;28;19916;-87
2022/08/12 03:00:20;;;;;;;;;;;;;;;;;;5073392;28;19939;-87
2022/08/12 03:02:45;;;;;;;;;;;;;;;;;;5056433;28;19959;-87
2022/08/12 03:05:11;;;;;;;;;;;;;;;;;;5074599;28;19999;-86
2022/08/12 03:07:41;;;;;;;;;;;;;;;;;;5056686;28;20265;-87
2022/08/12 03:10:08;;;;;;;;;;;;;;;;;;5073319;28;19982;-86
2022/08/12 03:12:35;;;;;;;;;;;;;;;;;;5074333;28;19916;-88
2022/08/12 03:15:01;;;;;;;;;;;;;;;;;;5073671;28;19981;-86
2022/08/12 03:17:28;;;;;;;;;;;;;;;;;;5083913;28;19913;-87
2022/08/12 03:19:53;;;;;;;;;;;;;;;;;;5074388;28;19916;-87
2022/08/12 03:22:19;;;;;;;;;;;;;;;;;;5056412;28;19973;-86
2022/08/12 03:24:45;;;;;;;;;;;;;;;;;;5073421;28;19973;-86
2022/08/12 03:27:11;;;;;;;;;;;;;;;;;;5073923;28;19919;-87
2022/08/12 03:29:37;;;;;;;;;;;;;;;;;;5074124;28;19916;-86
2022/08/12 03:32:03;;;;;;;;;;;;;;;;;;5073027;28;20270;-86
2022/08/12 03:34:29;;;;;;;;;;;;;;;;;;5073136;28;19917;-88
2022/08/12 03:36:54;;;;;;;;;;;;;;;;;;5075071;28;20321;-87
2022/08/12 03:39:26;;;;;;;;;;;;;;;;;;5083828;28;20265;-87
2022/08/12 03:41:58;;;;;;;;;;;;;;;;;;5076115;28;19968;-86
2022/08/12 04:01:10;;;;;;;;;;;;;;;;;;5078248;28;19984;-86
2022/08/12 04:03:51;;;;;;;;;;;;;;;;;;5078837;28;20346;-86
2022/08/12 04:06:17;;;;;;;;;;;;;;;;;;5076587;28;19924;-87
2022/08/12 04:08:43;;;;;;;;;;;;;;;;;;5077251;28;19920;-86
2022/08/12 04:13:52;;;;;;;;;;;;;;;;;;5075955;28;19946;-87
2022/08/12 04:16:17;;;;;;;;;;;;;;;;;;5077201;28;19921;-88
2022/08/12 04:18:43;;;;;;;;;;;;;;;;;;5078279;28;20322;-87
2022/08/12 04:21:09;;;;;;;;;;;;;;;;;;5077523;28;19916;-86
2022/08/12 04:23:38;;;;;;;;;;;;;;;;;;5077328;28;19924;-86
2022/08/12 04:26:06;;;;;;;;;;;;;;;;;;5075526;28;19917;-87
2022/08/12 04:28:32;;;;;;;;;;;;;;;;;;5076684;28;19917;-86
2022/08/12 04:30:57;;;;;;;;;;;;;;;;;;5076178;28;20262;-86
2022/08/12 04:33:23;;;;;;;;;;;;;;;;;;5077888;28;19942;-86
2022/08/12 04:35:49;;;;;;;;;;;;;;;;;;5075686;28;20624;-87
2022/08/12 04:38:14;;;;;;;;;;;;;;;;;;5082708;28;19917;-87
2022/08/12 04:40:40;;;;;;;;;;;;;;;;;;5082403;28;19967;-87
2022/08/12 04:43:05;;;;;;;;;;;;;;;;;;5075745;28;19912;-86
2022/08/12 04:45:31;;;;;;;;;;;;;;;;;;5076438;28;20016;-87
2022/08/12 04:47:57;;;;;;;;;;;;;;;;;;5076210;28;19916;-86
2022/08/12 04:50:23;;;;;;;;;;;;;;;;;;5076563;28;19965;-87
2022/08/12 04:52:49;;;;;;;;;;;;;;;;;;5075072;28;19916;-87
2022/08/12 04:55:15;;;;;;;;;;;;;;;;;;5075238;28;19916;-87
2022/08/12 04:57:40;;;;;;;;;;;;;;;;;;5059000;28;20066;-87
2022/08/12 05:00:09;;;;;;;;;;;;;;;;;;5081103;28;19947;-87
2022/08/12 05:02:35;;;;;;;;;;;;;;;;;;5078587;28;19923;-86
2022/08/12 05:05:00;;;;;;;;;;;;;;;;;;5077015;28;19916;-86
2022/08/12 05:07:26;;;;;;;;;;;;;;;;;;5076457;28;20006;-86
2022/08/12 05:09:51;;;;;;;;;;;;;;;;;;5079221;28;19916;-86
2022/08/12 05:12:18;;;;;;;;;;;;;;;;;;5078282;28;19939;-86
2022/08/12 05:14:44;;;;;;;;;;;;;;;;;;5076571;28;19916;-86
2022/08/12 05:17:09;;;;;;;;;;;;;;;;;;5076481;28;19923;-86
2022/08/12 05:19:34;;;;;;;;;;;;;;;;;;5081471;28;19938;-86
2022/08/12 05:22:00;;;;;;;;;;;;;;;;;;5084879;28;20234;-86
2022/08/12 05:24:25;;;;;;;;;;;;;;;;;;5078252;28;20013;-86
2022/08/12 05:26:51;;;;;;;;;;;;;;;;;;5076435;28;20255;-85
2022/08/12 05:29:16;;;;;;;;;;;;;;;;;;5076883;28;19916;-86
2022/08/12 05:31:42;;;;;;;;;;;;;;;;;;5076139;28;20211;-87
2022/08/12 05:34:07;;;;;;;;;;;;;;;;;;5076627;28;20313;-87
2022/08/12 05:36:32;;;;;;;;;;;;;;;;;;5075463;28;20014;-87
2022/08/12 05:38:58;;;;;;;;;;;;;;;;;;5076198;28;19923;-86
2022/08/12 05:41:27;;;;;;;;;;;;;;;;;;5086827;28;19924;-85
2022/08/12 05:43:53;;;;;;;;;;;;;;;;;;5076216;28;19974;-86
2022/08/12 05:46:18;;;;;;;;;;;;;;;;;;5076510;28;20012;-87
2022/08/12 05:48:48;;;;;;;;;;;;;;;;;;5076700;28;19958;-87
2022/08/12 05:51:16;;;;;;;;;;;;;;;;;;5075445;28;19924;-86
2022/08/12 05:57:36;;;;;;;;;;;;;;;;;;4995440;28;20299;-86
2022/08/12 06:00:27;;;;;;;;;;;;;;;;;;4992014;28;19918;-86
2022/08/12 06:06:42;;;;;;;;;;;;;;;;;;4947034;28;19926;-87
2022/08/12 06:12:10;;;;;;;;;;;;;;;;;;5076408;28;19922;-86
2022/08/12 06:14:35;;;;;;;;;;;;;;;;;;5075992;28;19960;-85
2022/08/12 06:17:01;;;;;;;;;;;;;;;;;;5075690;28;19916;-86
2022/08/12 06:19:28;;;;;;;;;;;;;;;;;;5075540;28;19927;-87
2022/08/12 06:21:53;;;;;;;;;;;;;;;;;;5083845;28;19927;-87
2022/08/12 06:24:23;;;;;;;;;;;;;;;;;;5076294;28;19921;-87
2022/08/12 06:26:58;;;;;;;;;;;;;;;;;;5075061;28;20349;-88
2022/08/12 06:29:24;;;;;;;;;;;;;;;;;;5075151;28;19923;-87
2022/08/12 06:31:49;;;;;;;;;;;;;;;;;;5075926;28;19916;-88
2022/08/12 06:34:17;;;;;;;;;;;;;;;;;;5075461;28;19920;-77
2022/08/12 06:36:43;;;;;;;;;;;;;;;;;;5074499;28;19920;-77
2022/08/12 06:39:10;;;;;;;;;;;;;;;;;;5073303;28;19916;-76
2022/08/12 06:44:19;;;;;;;;;;;;;;;;;;5075566;28;19993;-78
2022/08/12 06:46:45;;;;;;;;;;;;;;;;;;5074578;28;19917;-80
2022/08/12 06:49:12;;;;;;;;;;;;;;;;;;5056934;28;20249;-80
2022/08/12 06:51:37;;;;;;;;;;;;;;;;;;5074675;28;19916;-80
2022/08/12 06:54:02;;;;;;;;;;;;;;;;;;5074419;28;19917;-79
2022/08/12 06:56:29;;;;;;;;;;;;;;;;;;5073523;28;19912;-79
2022/08/12 06:58:56;;;;;;;;;;;;;;;;;;5073536;28;19916;-80
2022/08/12 07:01:22;;;;;;;;;;;;;;;;;;5074166;28;19928;-79
2022/08/12 07:03:47;;;;;;;;;;;;;;;;;;5080250;28;20323;-79
2022/08/12 07:06:13;;;;;;;;;;;;;;;;;;5074108;28;19916;-80
2022/08/12 07:08:38;;;;;;;;;;;;;;;;;;5074204;28;19920;-80
2022/08/12 07:11:05;;;;;;;;;;;;;;;;;;5074556;28;19923;-80
2022/08/12 07:13:42;;;;;;;;;;;;;;;;;;5073131;28;19923;-79
2022/08/12 07:16:08;;;;;;;;;;;;;;;;;;5075511;28;20368;-79
2022/08/12 07:18:33;;;;;;;;;;;;;;;;;;5079158;28;19990;-79
2022/08/12 07:21:03;;;;;;;;;;;;;;;;;;5078355;28;20338;-80
2022/08/12 07:23:29;;;;;;;;;;;;;;;;;;5078118;28;19924;-80
2022/08/12 07:25:55;;;;;;;;;;;;;;;;;;5078869;28;20616;-78
2022/08/12 07:28:24;;;;;;;;;;;;;;;;;;5077825;28;19956;-80
2022/08/12 07:30:50;;;;;;;;;;;;;;;;;;5077843;28;19920;-81
2022/08/12 07:33:16;;;;;;;;;;;;;;;;;;5077869;28;19917;-80
2022/08/12 07:35:44;;;;;;;;;;;;;;;;;;5077925;28;19924;-79
2022/08/12 07:38:24;;;;;;;;;;;;;;;;;;5076864;28;20105;-80
2022/08/12 07:41:06;;;;;;;;;;;;;;;;;;5078077;28;20326;-80
2022/08/12 07:43:32;;;;;;;;;;;;;;;;;;5079575;28;19966;-79
2022/08/12 07:45:57;;;;;;;;;;;;;;;;;;5077897;28;19943;-81
2022/08/12 07:48:23;;;;;;;;;;;;;;;;;;5078223;28;20322;-81
2022/08/12 07:50:48;;;;;;;;;;;;;;;;;;5076858;28;20262;-82
2022/08/12 07:53:14;;;;;;;;;;;;;;;;;;5077836;28;20323;-79
2022/08/12 07:55:39;;;;;;;;;;;;;;;;;;5077778;28;19923;-80
2022/08/12 07:58:04;;;;;;;;;;;;;;;;;;5076490;28;20400;-79
2022/08/12 08:00:30;;;;;;;;;;;;;;;;;;5077042;28;19916;-79
2022/08/12 08:02:57;;;;;;;;;;;;;;;;;;5077795;28;20325;-80
2022/08/12 08:05:23;;;;;;;;;;;;;;;;;;5077276;28;19973;-80
2022/08/12 08:07:49;;;;;;;;;;;;;;;;;;5084125;28;19916;-79
2022/08/12 08:10:15;;;;;;;;;;;;;;;;;;5094864;28;20332;-79
2022/08/12 08:12:52;;;;;;;;;;;;;;;;;;5096656;28;19998;-79
2022/08/12 08:15:19;;;;;;;;;;;;;;;;;;5096624;28;19916;-79
2022/08/12 08:18:01;;;;;;;;;;;;;;;;;;5096516;28;19922;-78
2022/08/12 08:20:27;;;;;;;;;;;;;;;;;;5076327;28;19920;-79
2022/08/12 08:22:56;;;;;;;;;;;;;;;;;;5092944;28;19926;-78
2022/08/12 08:25:29;;;;;;;;;;;;;;;;;;5097667;28;19912;-76
2022/08/12 08:27:55;;;;;;;;;;;;;;;;;;5094547;28;19932;-79
2022/08/12 08:30:20;;;;;;;;;;;;;;;;;;5096677;28;19917;-76
2022/08/12 08:32:45;;;;;;;;;;;;;;;;;;5095553;28;19920;-78
2022/08/12 08:35:13;;;;;;;;;;;;;;;;;;5095857;28;19920;-79
2022/08/12 08:37:38;;;;;;;;;;;;;;;;;;5096156;28;20238;-79
2022/08/12 08:42:48;;;;;;;;;;;;;;;;;;5096373;28;19924;-78
2022/08/12 08:45:14;;;;;;;;;;;;;;;;;;5095680;28;19920;-78
2022/08/12 08:47:46;;;;;;;;;;;;;;;;;;5094327;28;19916;-77
2022/08/12 08:50:14;;;;;;;;;;;;;;;;;;5095237;28;20376;-78
2022/08/12 08:52:43;;;;;;;;;;;;;;;;;;5096849;28;19923;-78
2022/08/12 08:55:09;;;;;;;;;;;;;;;;;;5096607;28;20001;-79
2022/08/12 08:57:34;;;;;;;;;;;;;;;;;;5096685;28;19981;-79
2022/08/12 09:00:00;;;;;;;;;;;;;;;;;;5096771;28;20350;-78
2022/08/12 09:02:25;;;;;;;;;;;;;;;;;;5078066;28;19939;-78
2022/08/12 09:04:51;;;;;;;;;;;;;;;;;;5095210;28;20010;-79
2022/08/12 09:07:19;;;;;;;;;;;;;;;;;;5096714;28;19916;-78
2022/08/12 09:09:45;;;;;;;;;;;;;;;;;;5096197;28;19951;-78
2022/08/12 09:14:54;;;;;;;;;;;;;;;;;;5096303;28;20003;-78
2022/08/12 09:17:21;;;;;;;;;;;;;;;;;;5095829;28;20365;-80
2022/08/12 09:19:46;;;;;;;;;;;;;;;;;;5094635;28;20010;-79
2022/08/12 09:22:12;;;;;;;;;;;;;;;;;;5094514;28;19958;-79
2022/08/12 09:24:38;;;;;;;;;;;;;;;;;;5095950;28;20076;-77
2022/08/12 09:27:05;;;;;;;;;;;;;;;;;;5095405;28;19920;-79
2022/08/12 09:29:32;;;;;;;;;;;;;;;;;;5096072;28;19978;-78
2022/08/12 09:31:57;;;;;;;;;;;;;;;;;;5094356;28;19927;-78
2022/08/12 09:34:26;;;;;;;;;;;;;;;;;;5095656;28;19916;-76
2022/08/12 09:36:52;;;;;;;;;;;;;;;;;;5096108;28;19919;-78
2022/08/12 09:39:17;;;;;;;;;;;;;;;;;;5095198;28;20242;-78
2022/08/12 09:41:43;;;;;;;;;;;;;;;;;;5095354;28;19915;-77
2022/08/12 09:46:52;;;;;;;;;;;;;;;;;;5056265;28;19969;-77
2022/08/12 09:49:18;;;;;;;;;;;;;;;;;;5056122;28;19921;-78
2022/08/12 09:51:46;;;;;;;;;;;;;;;;;;5055530;28;20334;-79
2022/08/12 09:54:11;;;;;;;;;;;;;;;;;;5055151;28;19912;-78
2022/08/12 09:56:40;;;;;;;;;;;;;;;;;;5055419;28;19939;-78
2022/08/12 09:59:09;;;;;;;;;;;;;;;;;;5055313;28;19913;-80
2022/08/12 10:01:37;;;;;;;;;;;;;;;;;;5053781;28;19966;-80
2022/08/12 10:04:09;;;;;;;;;;;;;;;;;;5055356;28;20322;-80
2022/08/12 10:06:37;;;;;;;;;;;;;;;;;;5055010;28;20003;-80
2022/08/12 10:09:05;;;;;;;;;;;;;;;;;;5055362;28;19917;-80
2022/08/12 10:14:15;;;;;;;;;;;;;;;;;;5054842;28;20255;-80
2022/08/12 10:16:43;;;;;;;;;;;;;;;;;;5055237;28;19917;-80
2022/08/12 10:19:08;;;;;;;;;;;;;;;;;;5054961;28;19924;-81
2022/08/12 10:21:37;;;;;;;;;;;;;;;;;;5054587;28;19916;-81
2022/08/12 10:24:09;;;;;;;;;;;;;;;;;;5054345;28;19917;-80
2022/08/12 10:32:03;;;;;;;;;;;;;;;;;;5054697;28;19924;-82
2022/08/12 10:34:28;;;;;;;;;;;;;;;;;;5055188;28;19917;-79
2022/08/12 10:37:00;;;;;;;;;;;;;;;;;;5054907;28;19924;-80
2022/08/12 10:39:26;;;;;;;;;;;;;;;;;;5053208;28;19924;-81
2022/08/12 10:44:36;;;;;;;;;;;;;;;;;;5060636;28;20058;-81
2022/08/12 10:47:02;;;;;;;;;;;;;;;;;;5094849;28;19962;-81
2022/08/12 10:49:30;;;;;;;;;;;;;;;;;;5093430;28;19923;-81
2022/08/12 10:51:56;;;;;;;;;;;;;;;;;;5111346;28;19916;-80
2022/08/12 10:54:21;;;;;;;;;;;;;;;;;;5093060;28;19919;-81
2022/08/12 10:56:48;;;;;;;;;;;;;;;;;;5095935;28;19916;-81
2022/08/12 10:59:14;;;;;;;;;;;;;;;;;;5095090;28;19923;-80
2022/08/12 11:01:41;;;;;;;;;;;;;;;;;;5094821;28;19916;-80
2022/08/12 11:04:12;;;;;;;;;;;;;;;;;;5094819;28;19916;-80
2022/08/12 11:06:40;;;;;;;;;;;;;;;;;;5094711;28;19947;-81
2022/08/12 11:09:05;;;;;;;;;;;;;;;;;;5093574;28;19920;-88
2022/08/12 11:11:30;;;;;;;;;;;;;;;;;;5103533;28;19916;-86
2022/08/12 11:13:55;;;;;;;;;;;;;;;;;;5096304;28;20307;-86
2022/08/12 11:16:24;;;;;;;;;;;;;;;;;;5095945;28;20393;-87
2022/08/12 11:18:50;;;;;;;;;;;;;;;;;;5095046;28;19923;-89
2022/08/12 11:21:15;;;;;;;;;;;;;;;;;;5095030;28;19916;-88
2022/08/12 11:23:40;;;;;;;;;;;;;;;;;;5094330;28;19916;-88
2022/08/12 11:26:06;;;;;;;;;;;;;;;;;;5095268;28;20242;-88
2022/08/12 11:28:31;;;;;;;;;;;;;;;;;;5094835;28;19916;-87
2022/08/12 11:30:56;;;;;;;;;;;;;;;;;;5100797;28;19953;-86
2022/08/12 11:33:22;;;;;;;;;;;;;;;;;;5100377;28;19916;-86
2022/08/12 11:35:47;;;;;;;;;;;;;;;;;;5093116;28;19916;-88
2022/08/12 11:38:13;;;;;;;;;;;;;;;;;;5094902;28;19916;-87
2022/08/12 11:40:38;;;;;;;;;;;;;;;;;;5096084;28;19916;-87
2022/08/12 11:43:06;;;;;;;;;;;;;;;;;;5094233;28;19916;-88
2022/08/12 11:45:31;;;;;;;;;;;;;;;;;;5094326;28;19920;-87
2022/08/12 11:48:06;;;;;;;;;;;;;;;;;;5098617;28;19973;-87
2022/08/12 11:50:33;;;;;;;;;;;;;;;;;;5094834;28;19917;-88
2022/08/12 11:52:58;;;;;;;;;;;;;;;;;;5107551;28;19926;-87
2022/08/12 11:55:23;;;;;;;;;;;;;;;;;;5095019;28;20002;-87
2022/08/12 11:57:49;;;;;;;;;;;;;;;;;;5093535;28;20578;-86
2022/08/12 12:00:15;;;;;;;;;;;;;;;;;;5094543;28;19916;-87
2022/08/12 12:02:40;;;;;;;;;;;;;;;;;;5094899;28;20006;-87
2022/08/12 12:05:08;;;;;;;;;;;;;;;;;;5098105;28;19916;-87
2022/08/12 12:07:38;;;;;;;;;;;;;;;;;;5097274;28;20336;-88
2022/08/12 12:10:03;;;;;;;;;;;;;;;;;;5097454;28;19965;-88
2022/08/12 12:12:28;;;;;;;;;;;;;;;;;;5108853;28;19904;-87
2022/08/12 12:14:54;;;;;;;;;;;;;;;;;;5107724;28;19998;-87
2022/08/12 12:17:19;;;;;;;;;;;;;;;;;;5098165;28;20385;-87
2022/08/12 12:19:44;;;;;;;;;;;;;;;;;;5097650;28;19923;-87
2022/08/12 12:22:10;;;;;;;;;;;;;;;;;;5097720;28;19923;-86
2022/08/12 12:24:36;;;;;;;;;;;;;;;;;;5097585;28;19939;-88
2022/08/12 12:27:02;;;;;;;;;;;;;;;;;;5097698;28;20003;-87
2022/08/12 12:29:31;;;;;;;;;;;;;;;;;;5097614;28;20237;-86
2022/08/12 12:31:56;;;;;;;;;;;;;;;;;;5100767;28;19916;-86
2022/08/12 12:34:21;;;;;;;;;;;;;;;;;;5113015;28;19970;-89
2022/08/12 12:36:47;;;;;;;;;;;;;;;;;;5098220;28;19916;-87
2022/08/12 12:39:13;;;;;;;;;;;;;;;;;;5098290;28;20011;-90
2022/08/12 12:41:38;;;;;;;;;;;;;;;;;;5097114;28;19981;-87
2022/08/12 12:44:03;;;;;;;;;;;;;;;;;;5097324;28;19938;-87
2022/08/12 12:46:29;;;;;;;;;;;;;;;;;;5096282;28;20334;-87
2022/08/12 12:48:54;;;;;;;;;;;;;;;;;;5096726;28;19942;-88
2022/08/12 12:51:20;;;;;;;;;;;;;;;;;;5097275;28;19973;-88
2022/08/12 12:53:46;;;;;;;;;;;;;;;;;;5113461;28;19926;-87
2022/08/12 12:56:19;;;;;;;;;;;;;;;;;;5100213;28;19920;-87
2022/08/12 12:58:48;;;;;;;;;;;;;;;;;;5096935;28;19942;-87
2022/08/12 13:01:15;;;;;;;;;;;;;;;;;;5078916;28;19969;-88
2022/08/12 13:03:40;;;;;;;;;;;;;;;;;;5078812;28;19916;-87
2022/08/12 13:06:07;;;;;;;;;;;;;;;;;;5095243;28;19919;-87
2022/08/12 13:08:32;;;;;;;;;;;;;;;;;;5096319;28;19924;-87
2022/08/12 13:11:02;;;;;;;;;;;;;;;;;;5096627;28;19947;-87
2022/08/12 13:13:28;;;;;;;;;;;;;;;;;;5096777;28;19904;-89
2022/08/12 13:15:55;;;;;;;;;;;;;;;;;;5110238;28;19920;-87
2022/08/12 13:18:20;;;;;;;;;;;;;;;;;;5095019;28;19920;-89
2022/08/12 13:20:46;;;;;;;;;;;;;;;;;;5095634;28;19916;-88
2022/08/12 13:23:12;;;;;;;;;;;;;;;;;;5096114;28;19916;-88
2022/08/12 13:25:40;;;;;;;;;;;;;;;;;;5096283;28;19920;-88
2022/08/12 13:28:07;;;;;;;;;;;;;;;;;;5095463;28;19948;-87
2022/08/12 13:30:35;;;;;;;;;;;;;;;;;;5095305;28;20007;-87
2022/08/12 13:33:00;;;;;;;;;;;;;;;;;;5095041;28;19922;-88
2022/08/12 13:35:26;;;;;;;;;;;;;;;;;;5105756;28;20014;-86
2022/08/12 13:37:53;;;;;;;;;;;;;;;;;;5079931;28;20223;-88
2022/08/12 13:40:19;;;;;;;;;;;;;;;;;;5096333;28;19973;-88
2022/08/12 13:42:46;;;;;;;;;;;;;;;;;;5097881;28;20011;-87
2022/08/12 13:45:12;;;;;;;;;;;;;;;;;;5096164;28;20069;-87
2022/08/12 13:47:56;;;;;;;;;;;;;;;;;;5095723;28;19961;-87
2022/08/12 13:50:31;;;;;;;;;;;;;;;;;;5102708;28;19923;-87
2022/08/12 13:53:00;;;;;;;;;;;;;;;;;;5109585;28;19916;-87
2022/08/12 13:55:28;;;;;;;;;;;;;;;;;;5092324;28;19904;-88
2022/08/12 13:57:54;;;;;;;;;;;;;;;;;;5105059;28;19916;-87
2022/08/12 14:00:20;;;;;;;;;;;;;;;;;;5095964;28;19994;-87
2022/08/12 14:02:45;;;;;;;;;;;;;;;;;;5094072;28;19912;-87
2022/08/12 14:05:10;;;;;;;;;;;;;;;;;;5095555;28;20336;-90
2022/08/12 14:07:52;;;;;;;;;;;;;;;;;;5095979;28;19920;-89
2022/08/12 14:10:40;;;;;;;;;;;;;;;;;;5094025;28;20014;-86
2022/08/12 14:13:05;;;;;;;;;;;;;;;;;;5095439;28;20337;-87
2022/08/12 14:15:34;;;;;;;;;;;;;;;;;;5101734;28;19900;-88
2022/08/12 14:18:06;;;;;;;;;;;;;;;;;;5106863;28;20061;-88
2022/08/12 14:20:31;;;;;;;;;;;;;;;;;;5093747;28;20304;-88
2022/08/12 14:22:58;;;;;;;;;;;;;;;;;;5095128;28;19981;-86
2022/08/12 14:25:25;;;;;;;;;;;;;;;;;;5094949;28;20314;-88
2022/08/12 14:27:51;;;;;;;;;;;;;;;;;;5095398;28;19916;-88
2022/08/12 14:30:17;;;;;;;;;;;;;;;;;;5094014;28;19916;-88
2022/08/12 14:32:42;;;;;;;;;;;;;;;;;;5095343;28;20215;-86
2022/08/12 14:35:09;;;;;;;;;;;;;;;;;;5096225;28;19916;-86
2022/08/12 14:37:38;;;;;;;;;;;;;;;;;;5103192;28;19916;-88
2022/08/12 14:40:03;;;;;;;;;;;;;;;;;;5095797;28;19920;-87
2022/08/12 14:42:29;;;;;;;;;;;;;;;;;;5094646;28;20299;-89
2022/08/12 14:44:57;;;;;;;;;;;;;;;;;;5094553;28;19921;-87
2022/08/12 14:47:23;;;;;;;;;;;;;;;;;;5094982;28;19977;-88
2022/08/12 14:49:49;;;;;;;;;;;;;;;;;;5094787;28;20002;-87
2022/08/12 14:52:14;;;;;;;;;;;;;;;;;;5094919;28;19920;-88
2022/08/12 14:54:42;;;;;;;;;;;;;;;;;;5093720;28;20740;-89
2022/08/12 14:57:09;;;;;;;;;;;;;;;;;;5105411;28;19932;-88
2022/08/12 15:02:19;;;;;;;;;;;;;;;;;;5093601;28;19922;-88
2022/08/12 15:05:03;;;;;;;;;;;;;;;;;;5093712;28;19916;-89
2022/08/12 15:07:28;;;;;;;;;;;;;;;;;;5094326;28;19916;-87
2022/08/12 15:09:55;;;;;;;;;;;;;;;;;;5094444;28;20344;-88
2022/08/12 15:12:20;;;;;;;;;;;;;;;;;;5094804;28;19916;-88
2022/08/12 15:14:45;;;;;;;;;;;;;;;;;;5094169;28;20352;-88
2022/08/12 15:17:11;;;;;;;;;;;;;;;;;;5100094;28;19972;-88
2022/08/12 15:19:36;;;;;;;;;;;;;;;;;;5107118;28;19959;-89
2022/08/12 15:22:01;;;;;;;;;;;;;;;;;;5094411;28;20381;-88
2022/08/12 15:24:27;;;;;;;;;;;;;;;;;;5093496;28;19950;-87
2022/08/12 15:26:52;;;;;;;;;;;;;;;;;;5094662;28;19924;-87
2022/08/12 15:29:18;;;;;;;;;;;;;;;;;;5093164;28;20247;-88
2022/08/12 15:31:44;;;;;;;;;;;;;;;;;;5093176;28;19979;-89
2022/08/12 15:34:09;;;;;;;;;;;;;;;;;;5093651;28;19969;-88
2022/08/12 15:36:35;;;;;;;;;;;;;;;;;;5093863;28;19920;-89
2022/08/12 15:39:01;;;;;;;;;;;;;;;;;;5107553;28;20326;-87
2022/08/12 15:41:26;;;;;;;;;;;;;;;;;;5098573;28;19928;-88
2022/08/12 15:43:55;;;;;;;;;;;;;;;;;;5097458;28;19955;-89
2022/08/12 15:46:21;;;;;;;;;;;;;;;;;;5098368;28;19985;-87
2022/08/12 15:48:46;;;;;;;;;;;;;;;;;;5098134;28;19955;-88
2022/08/12 15:51:11;;;;;;;;;;;;;;;;;;5098251;28;19920;-89
2022/08/12 15:56:22;;;;;;;;;;;;;;;;;;5097918;28;19930;-87
2022/08/12 15:58:47;;;;;;;;;;;;;;;;;;5102305;28;19924;-89
2022/08/12 16:01:13;;;;;;;;;;;;;;;;;;5082953;28;19920;-89
2022/08/12 16:03:39;;;;;;;;;;;;;;;;;;5097530;28;19916;-89
2022/08/12 16:06:04;;;;;;;;;;;;;;;;;;5098004;28;19920;-89
2022/08/12 16:08:35;;;;;;;;;;;;;;;;;;5097752;28;19916;-88
2022/08/12 16:11:00;;;;;;;;;;;;;;;;;;5098002;28;20326;-89
2022/08/12 16:13:55;;;;;;;;;;;;;;;;;;5097384;28;19946;-88
2022/08/12 16:16:20;;;;;;;;;;;;;;;;;;5079674;28;19989;-88
2022/08/12 16:18:45;;;;;;;;;;;;;;;;;;5096081;28;20325;-87
2022/08/12 16:21:11;;;;;;;;;;;;;;;;;;5104991;28;19920;-88
2022/08/12 16:23:48;;;;;;;;;;;;;;;;;;5096509;28;19916;-87
2022/08/12 16:26:14;;;;;;;;;;;;;;;;;;5079275;28;19923;-89
2022/08/12 16:28:39;;;;;;;;;;;;;;;;;;5097440;28;19916;-88
2022/08/12 16:31:04;;;;;;;;;;;;;;;;;;5097199;28;19916;-89
2022/08/12 16:33:34;;;;;;;;;;;;;;;;;;5097271;28;20266;-89
2022/08/12 16:36:00;;;;;;;;;;;;;;;;;;5079954;28;19961;-90
2022/08/12 16:38:26;;;;;;;;;;;;;;;;;;5097856;28;20293;-90
2022/08/12 16:40:53;;;;;;;;;;;;;;;;;;5100939;28;19916;-88
2022/08/12 16:43:22;;;;;;;;;;;;;;;;;;5097151;28;19958;-88
2022/08/12 16:45:50;;;;;;;;;;;;;;;;;;5097063;28;20014;-89
2022/08/12 16:48:38;;;;;;;;;;;;;;;;;;5079331;28;19939;-90
2022/08/12 16:51:04;;;;;;;;;;;;;;;;;;5096799;28;19939;-87
2022/08/12 16:53:37;;;;;;;;;;;;;;;;;;5097385;28;20258;-89
2022/08/12 16:56:03;;;;;;;;;;;;;;;;;;5096778;28;19923;-88
2022/08/12 16:58:29;;;;;;;;;;;;;;;;;;5095866;28;19998;-87
2022/08/12 17:00:55;;;;;;;;;;;;;;;;;;5099289;28;20261;-89
2022/08/12 17:03:20;;;;;;;;;;;;;;;;;;5109968;28;19920;-88
2022/08/12 17:05:52;;;;;;;;;;;;;;;;;;5095881;28;19951;-88
2022/08/12 17:08:20;;;;;;;;;;;;;;;;;;5096732;28;20318;-88
2022/08/12 17:10:47;;;;;;;;;;;;;;;;;;5096374;28;20408;-88
2022/08/12 17:13:12;;;;;;;;;;;;;;;;;;5096580;28;20287;-89
2022/08/12 17:15:37;;;;;;;;;;;;;;;;;;5096436;28;19947;-88
2022/08/12 17:18:08;;;;;;;;;;;;;;;;;;5096425;28;19916;-88
2022/08/12 17:20:37;;;;;;;;;;;;;;;;;;5099394;28;20318;-86
2022/08/12 17:23:04;;;;;;;;;;;;;;;;;;5098524;28;19941;-88
2022/08/12 17:25:29;;;;;;;;;;;;;;;;;;5096347;28;19989;-89
2022/08/12 17:27:54;;;;;;;;;;;;;;;;;;5095272;28;20321;-89
2022/08/12 17:30:20;;;;;;;;;;;;;;;;;;5094902;28;20355;-89
2022/08/12 17:32:45;;;;;;;;;;;;;;;;;;5096579;28;20377;-88
2022/08/12 17:35:28;;;;;;;;;;;;;;;;;;5096180;28;19923;-88
2022/08/12 17:38:15;;;;;;;;;;;;;;;;;;5080549;28;19916;-88
2022/08/12 17:40:41;;;;;;;;;;;;;;;;;;5095061;28;19920;-88
2022/08/12 17:43:09;;;;;;;;;;;;;;;;;;5100791;28;19928;-89
2022/08/12 17:45:34;;;;;;;;;;;;;;;;;;5094786;28;19920;-88
2022/08/12 17:48:02;;;;;;;;;;;;;;;;;;5095711;28;20003;-89
2022/08/12 17:50:28;;;;;;;;;;;;;;;;;;5095537;28;20014;-87
2022/08/12 17:53:00;;;;;;;;;;;;;;;;;;5077849;28;19924;-88
2022/08/12 17:55:25;;;;;;;;;;;;;;;;;;5095230;28;19924;-89
2022/08/12 17:57:54;;;;;;;;;;;;;;;;;;5094913;28;19916;-89
2022/08/12 18:00:19;;;;;;;;;;;;;;;;;;5094659;28;19959;-88
2022/08/12 18:02:45;;;;;;;;;;;;;;;;;;5105731;28;19920;-87
2022/08/12 18:05:11;;;;;;;;;;;;;;;;;;5095775;28;19923;-87
2022/08/12 18:07:36;;;;;;;;;;;;;;;;;;5095398;28;20010;-89
2022/08/12 18:10:01;;;;;;;;;;;;;;;;;;5094130;28;19916;-90
2022/08/12 18:12:37;;;;;;;;;;;;;;;;;;5093933;28;19916;-89
2022/08/12 18:15:09;;;;;;;;;;;;;;;;;;5095553;28;19923;-88
2022/08/12 18:17:34;;;;;;;;;;;;;;;;;;5094034;28;20277;-88
2022/08/12 18:20:00;;;;;;;;;;;;;;;;;;5095775;28;19916;-88
2022/08/12 18:22:26;;;;;;;;;;;;;;;;;;5082510;28;20006;-88
2022/08/12 18:24:51;;;;;;;;;;;;;;;;;;5101103;28;20002;-88
2022/08/12 18:27:17;;;;;;;;;;;;;;;;;;5094058;28;19996;-89
2022/08/12 18:29:42;;;;;;;;;;;;;;;;;;5093969;28;19941;-89
2022/08/12 18:32:09;;;;;;;;;;;;;;;;;;5101063;28;20003;-89
2022/08/12 18:34:41;;;;;;;;;;;;;;;;;;5096030;28;19916;-88
2022/08/12 18:37:10;;;;;;;;;;;;;;;;;;5093694;28;19913;-88
2022/08/12 18:42:32;;;;;;;;;;;;;;;;;;5032122;28;20663;-87
2022/08/12 18:44:57;;;;;;;;;;;;;;;;;;5081589;28;19924;-88
2022/08/12 18:47:28;;;;;;;;;;;;;;;;;;5094123;28;20011;-88
2022/08/12 18:49:53;;;;;;;;;;;;;;;;;;5094991;28;19916;-87